• Join FlightAware (Why Join?)
  • Login
  • US Flag 
01:22PM EDT


 

Airport Tracker/Info


-or-


 

Live Flight TrackerFlight Track Log ✈ SWA267 ✈ 14-Apr-2013 ✈ KMCO - KORF

Flight Track Log - Related Links

Times and Time Zones

All times are in EDT time to prevent confusion due to time zone crossing. See the SWA267 flight status page for this flight to view local times or setup timezone preferences in your user account.

Time Position Orientation Groundspeed Altitude Reporting Facility
EDT Latitude Longitude Course Direction KTS MPH feet Rate Location/Type
10:08AM 28.4000 -81.3000 147° Southeast 174 200 500  Level Orlando TRACON
10:10AM 28.3333 -81.2500 147° Southeast 221 254 4,200 2,460 Climbing Orlando TRACON
10:11AM 28.3333 -81.1833 90° East 245 282 7,000 1,860 Climbing Orlando TRACON
10:12AM 28.4000 -81.1500 24° Northeast 301 346 8,000 1,380 Climbing Orlando TRACON
10:14AM 28.5856 -81.2117 344° North 306 352 11,800 1,920 Climbing Jacksonville Center
10:15AM 28.6778 -81.2408 344° North 326 375 14,800 2,640 Climbing Jacksonville Center
10:16AM 28.7742 -81.2678 346° North 338 389 17,100 2,220 Climbing Jacksonville Center
10:17AM 28.8786 -81.2850 352° North 359 413 19,300 2,400 Climbing Jacksonville Center
10:18AM 28.9831 -81.2997 353° North 374 430 21,900 2,040 Climbing Jacksonville Center
10:19AM 29.0878 -81.3147 353° North 374 430 23,400 1,560 Climbing Jacksonville Center
10:20AM 29.1986 -81.3322 352° North 388 447 25,100 1,740 Climbing Jacksonville Center
10:21AM 29.3136 -81.3422 356° North 393 452 26,900 1,260 Climbing Jacksonville Center
10:22AM 29.4225 -81.3714 347° North 403 464 27,700 1,080 Climbing Jacksonville Center
10:23AM 29.5519 -81.3886 353° North 409 471 29,100 4,620 Climbing Jacksonville Center
10:24AM 29.6711 -81.4083 352° North 422 486 37,000 1,200 Climbing Jacksonville Center
10:25AM 29.7967 -81.4256 353° North 430 495 31,500 -2,040 Descending Jacksonville Center
10:26AM 29.9139 -81.4453 352° North 437 503 33,000 1,440 Climbing Jacksonville Center
10:27AM 30.0308 -81.4628 353° North 432 497 34,500 1,380 Climbing Jacksonville Center
10:28AM 30.1439 -81.4803 352° North 419 482 35,800 1,020 Climbing Jacksonville Center
10:29AM 30.2567 -81.4978 352° North 413 475 36,600 600 Climbing Jacksonville Center
10:30AM 30.3739 -81.5081 356° North 413 475 37,000 180 Climbing Jacksonville Center
10:31AM 30.4969 -81.4992 North 413 475 37,000  Level Jacksonville Center
10:32AM 30.6158 -81.4878 North 424 488 37,000  Level Jacksonville Center
10:33AM 30.7264 -81.4814 North 432 497 37,000  Level Jacksonville Center
10:34AM 30.8475 -81.4722 North 432 497 37,000  Level Jacksonville Center
10:35AM 30.9664 -81.4631 North 432 497 37,000  Level Jacksonville Center
10:36AM 31.0853 -81.4517 North 432 497 37,000  Level Jacksonville Center
10:37AM 31.2144 -81.4400 North 426 490 37,000  Level Jacksonville Center
10:38AM 31.3269 -81.4211 North 426 490 37,000  Level Jacksonville Center
10:39AM 31.4436 -81.3853 15° North 433 498 37,000  Level Jacksonville Center
10:40AM 31.5767 -81.3489 13° North 433 498 37,000  Level Jacksonville Center
10:41AM 31.6994 -81.3175 12° North 433 498 37,000  Level Jacksonville Center
10:42AM 31.8078 -81.2889 13° North 433 498 37,000 -60 Level Jacksonville Center
10:43AM 31.9325 -81.2572 12° North 441 507 36,900  Descending Jacksonville Center
10:44AM 32.0533 -81.2258 12° North 448 516 37,000  Climbing Jacksonville Center
10:45AM 32.1714 -81.1597 25° Northeast 448 516 37,000  Level Jacksonville Center
10:46AM 32.2697 -81.0203 50° Northeast 472 543 37,000  Level Jacksonville Center
10:47AM 32.3469 -80.8983 53° Northeast 505 581 37,000  Level Jacksonville Center
10:48AM 32.4344 -80.7586 53° Northeast 513 590 37,000  Level Jacksonville Center
10:49AM 32.5200 -80.6236 53° Northeast 513 590 37,000  Level Jacksonville Center
10:50AM 32.6111 -80.4831 52° Northeast 513 590 37,000  Level Jacksonville Center
10:51AM 32.6983 -80.3450 53° Northeast 518 596 37,000 -60 Level Jacksonville Center
10:52AM 32.7850 -80.2042 54° Northeast 518 596 36,900  Descending Jacksonville Center
10:53AM 32.8739 -80.0656 53° Northeast 523 602 37,000  Climbing Jacksonville Center
10:54AM 32.9800 -79.9508 42° Northeast 518 596 37,000  Level Jacksonville Center
10:55AM 33.0900 -79.8456 39° Northeast 510 587 37,000  Level Jacksonville Center
10:56AM 33.1983 -79.7450 38° Northeast 500 575 37,000 -60 Level Jacksonville Center
10:57AM 33.3042 -79.6394 40° Northeast 500 575 36,900  Descending Jacksonville Center
10:58AM 33.4242 -79.5231 39° Northeast 495 570 37,000  Climbing Jacksonville Center
10:59AM 33.5297 -79.4194 39° Northeast 495 570 37,000  Level Jacksonville Center
11:00AM 33.6375 -79.3128 39° Northeast 495 570 37,000  Level Jacksonville Center
11:01AM 33.7289 -79.2242 39° Northeast 495 570 37,000  Level Jacksonville Center
11:02AM 33.8342 -79.1197 39° Northeast 488 562 37,000  Level Jacksonville Center
11:05AM 34.1131 -78.8450 39° Northeast 488 562 37,000  Level Washington Center
11:06AM 34.2200 -78.7414 39° Northeast 488 562 37,000  Level Washington Center
11:07AM 34.3250 -78.6347 40° Northeast 488 562 37,000 -120 Level Washington Center
11:08AM 34.4342 -78.5256 40° Northeast 488 562 36,800 -420 Descending Washington Center
11:09AM 34.5178 -78.4378 41° Northeast 488 562 36,200 -840 Descending Washington Center
11:10AM 34.6522 -78.3036 39° Northeast 504 580 35,200 -1,020 Descending Washington Center
11:11AM 34.7611 -78.1958 39° Northeast 504 580 34,200 -1,260 Descending Washington Center
11:12AM 34.8531 -78.0900 43° Northeast 504 580 32,700 -1,620 Descending Washington Center
11:13AM 34.9639 -77.9794 39° Northeast 504 580 31,000 -1,320 Descending Washington Center
11:14AM 35.0681 -77.8708 40° Northeast 499 574 30,100 -960 Descending Washington Center
11:15AM 35.1767 -77.7594 40° Northeast 499 574 29,100 -960 Descending Washington Center
11:16AM 35.2808 -77.6531 40° Northeast 494 568 28,200 -1,320 Descending Washington Center
11:17AM 35.3806 -77.5511 40° Northeast 482 555 26,500 -1,740 Descending Washington Center
11:18AM 35.4881 -77.4772 29° Northeast 463 533 24,800 -1,800 Descending Washington Center
11:19AM 35.5956 -77.4056 28° Northeast 443 510 23,000 -900 Descending Washington Center
11:20AM 35.7011 -77.3364 28° Northeast 429 494 23,000  Level Washington Center
11:21AM 35.7981 -77.2592 33° Northeast 422 486 23,000  Level Washington Center
11:22AM 35.8972 -77.1792 33° Northeast 416 479 23,000 -300 Level Washington Center
11:23AM 36.0006 -77.0967 33° Northeast 410 472 22,500 -1,380 Descending Washington Center
11:24AM 36.0911 -77.0211 34° Northeast 404 465 20,300 -2,340 Descending Washington Center
11:24AM 36.1228 -77.0011 27° Northeast 387 445 19,500 -2,040 Descending Washington Center
11:25AM 36.1839 -76.9508 34° Northeast 398 458 18,300 -1,680 Descending Washington Center
11:25AM 36.2111 -76.9333 27° Northeast 381 438 17,800 -1,920 Descending Washington Center
11:26AM 36.2681 -76.8800 37° Northeast 379 436 16,400 -2,100 Descending Washington Center
11:26AM 36.2975 -76.8625 26° Northeast 365 420 15,700 -2,700 Descending Washington Center
11:27AM 36.3542 -76.8144 34° Northeast 372 428 13,700 -3,180 Descending Washington Center
11:27AM 36.3836 -76.7917 32° Northeast 367 422 12,500 -2,700 Descending Washington Center
11:28AM 36.4425 -76.7436 33° Northeast 372 428 11,000 -1,500 Descending Washington Center
11:28AM 36.4742 -76.7233 27° Northeast 357 411 11,000 -300 Level Washington Center
11:29AM 36.5164 -76.6747 43° Northeast 355 409 10,700 -1,020 Descending Washington Center
11:29AM 36.5353 -76.6519 44° Northeast 293 337 10,000 -2,040 Descending Washington Center
11:30AM 36.5711 -76.5981 50° Northeast 316 364 8,700 -2,100 Descending Washington Center
11:30AM 36.5903 -76.5697 50° Northeast 295 339 7,900 -2,040 Descending Washington Center
11:31AM 36.6219 -76.5236 49° Northeast 290 334 6,700 -1,980 Descending Washington Center
11:31AM 36.6431 -76.4953 47° Northeast 281 323 5,900 -1,920 Descending Washington Center
11:32AM 36.6725 -76.4517 50° Northeast 283 326 4,800 -1,920 Descending Washington Center
11:32AM 36.6914 -76.4233 50° Northeast 270 311 4,000 -840 Descending Washington Center
11:33AM 36.7125 -76.3900 52° Northeast 267 307 4,000  Level Washington Center
11:33AM 36.7314 -76.3617 50° Northeast 218 251 4,000 -600 Level Washington Center
11:34AM 36.7567 -76.3333 42° Northeast 234 269 3,400 -1,140 Descending Washington Center
11:34AM 36.7756 -76.3181 33° Northeast 198 228 2,900 -1,140 Descending Washington Center
11:35AM 36.8175 -76.2769 38° Northeast 188 216 1,800 -960 Descending Washington Center
11:36AM 36.8531 -76.2433 37° Northeast 132 152 1,000 -840 Descending Washington Center